sensor_id;sensor_type;location;lat;lon;timestamp;temperature;humidity
48162;DHT22;33950;48.154;16.316;2022-11-20T00:01:37;4.10;93.80
48162;DHT22;33950;48.154;16.316;2022-11-20T00:04:23;4.10;93.90
48162;DHT22;33950;48.154;16.316;2022-11-20T00:07:11;4.20;93.80
48162;DHT22;33950;48.154;16.316;2022-11-20T00:09:57;4.00;93.50
48162;DHT22;33950;48.154;16.316;2022-11-20T00:12:43;4.10;93.80
48162;DHT22;33950;48.154;16.316;2022-11-20T00:15:29;4.00;93.70
48162;DHT22;33950;48.154;16.316;2022-11-20T00:18:15;4.00;93.80
48162;DHT22;33950;48.154;16.316;2022-11-20T00:21:02;4.00;93.60
48162;DHT22;33950;48.154;16.316;2022-11-20T00:23:50;4.00;93.70
48162;DHT22;33950;48.154;16.316;2022-11-20T00:26:37;4.00;93.70
48162;DHT22;33950;48.154;16.316;2022-11-20T00:29:23;4.00;93.80
48162;DHT22;33950;48.154;16.316;2022-11-20T00:32:09;4.10;94.10
48162;DHT22;33950;48.154;16.316;2022-11-20T00:34:55;4.10;93.70
48162;DHT22;33950;48.154;16.316;2022-11-20T00:37:41;4.10;93.50
48162;DHT22;33950;48.154;16.316;2022-11-20T00:40:29;3.90;93.70
48162;DHT22;33950;48.154;16.316;2022-11-20T00:43:15;3.80;93.70
48162;DHT22;33950;48.154;16.316;2022-11-20T00:46:02;3.80;93.90
48162;DHT22;33950;48.154;16.316;2022-11-20T00:48:49;3.80;94.00
48162;DHT22;33950;48.154;16.316;2022-11-20T00:51:35;4.00;93.90
48162;DHT22;33950;48.154;16.316;2022-11-20T00:54:21;3.90;93.70
48162;DHT22;33950;48.154;16.316;2022-11-20T00:57:08;4.00;94.00
48162;DHT22;33950;48.154;16.316;2022-11-20T00:59:54;4.00;94.10
48162;DHT22;33950;48.154;16.316;2022-11-20T01:02:40;4.10;94.00
48162;DHT22;33950;48.154;16.316;2022-11-20T01:05:26;4.10;93.70
48162;DHT22;33950;48.154;16.316;2022-11-20T01:08:12;3.90;93.80
48162;DHT22;33950;48.154;16.316;2022-11-20T01:11:00;4.00;93.80
48162;DHT22;33950;48.154;16.316;2022-11-20T01:13:50;4.00;93.90
48162;DHT22;33950;48.154;16.316;2022-11-20T01:16:38;3.90;94.10
48162;DHT22;33950;48.154;16.316;2022-11-20T01:19:24;3.80;94.20
48162;DHT22;33950;48.154;16.316;2022-11-20T01:22:10;3.80;94.50
48162;DHT22;33950;48.154;16.316;2022-11-20T01:24:56;3.90;94.50
48162;DHT22;33950;48.154;16.316;2022-11-20T01:27:42;3.90;94.70
48162;DHT22;33950;48.154;16.316;2022-11-20T01:30:29;3.80;94.90
48162;DHT22;33950;48.154;16.316;2022-11-20T01:33:15;3.80;95.20
48162;DHT22;33950;48.154;16.316;2022-11-20T01:36:06;3.80;95.30
48162;DHT22;33950;48.154;16.316;2022-11-20T01:38:52;3.80;95.20
48162;DHT22;33950;48.154;16.316;2022-11-20T01:41:39;3.80;95.40
48162;DHT22;33950;48.154;16.316;2022-11-20T01:44:53;3.80;95.70
48162;DHT22;33950;48.154;16.316;2022-11-20T01:47:43;3.70;95.70
48162;DHT22;33950;48.154;16.316;2022-11-20T01:50:30;3.60;95.90
48162;DHT22;33950;48.154;16.316;2022-11-20T01:53:21;3.60;96.10
48162;DHT22;33950;48.154;16.316;2022-11-20T01:56:10;3.50;96.10
48162;DHT22;33950;48.154;16.316;2022-11-20T01:58:59;3.50;96.50
48162;DHT22;33950;48.154;16.316;2022-11-20T02:01:47;3.40;96.50
48162;DHT22;33950;48.154;16.316;2022-11-20T02:04:35;3.40;96.50
48162;DHT22;33950;48.154;16.316;2022-11-20T02:07:22;3.40;96.50
48162;DHT22;33950;48.154;16.316;2022-11-20T02:10:09;3.40;96.20
48162;DHT22;33950;48.154;16.316;2022-11-20T02:12:55;3.40;96.20
48162;DHT22;33950;48.154;16.316;2022-11-20T02:16:01;3.30;96.30
48162;DHT22;33950;48.154;16.316;2022-11-20T02:18:48;3.30;96.10
48162;DHT22;33950;48.154;16.316;2022-11-20T02:21:40;3.30;96.20
48162;DHT22;33950;48.154;16.316;2022-11-20T02:24:30;3.30;96.00
48162;DHT22;33950;48.154;16.316;2022-11-20T02:27:17;3.30;95.90
48162;DHT22;33950;48.154;16.316;2022-11-20T02:30:05;3.30;95.90
48162;DHT22;33950;48.154;16.316;2022-11-20T02:32:53;3.30;95.70
48162;DHT22;33950;48.154;16.316;2022-11-20T02:35:42;3.40;95.80
48162;DHT22;33950;48.154;16.316;2022-11-20T02:38:28;3.40;96.00
48162;DHT22;33950;48.154;16.316;2022-11-20T02:41:16;3.40;95.80
48162;DHT22;33950;48.154;16.316;2022-11-20T02:44:03;3.50;95.90
48162;DHT22;33950;48.154;16.316;2022-11-20T02:46:49;3.50;95.60
48162;DHT22;33950;48.154;16.316;2022-11-20T02:49:35;3.60;95.90
48162;DHT22;33950;48.154;16.316;2022-11-20T02:52:21;3.50;95.80
48162;DHT22;33950;48.154;16.316;2022-11-20T02:55:08;3.60;95.90
48162;DHT22;33950;48.154;16.316;2022-11-20T02:57:56;3.70;95.90
48162;DHT22;33950;48.154;16.316;2022-11-20T03:00:42;3.70;95.80
48162;DHT22;33950;48.154;16.316;2022-11-20T03:03:28;3.60;95.80
48162;DHT22;33950;48.154;16.316;2022-11-20T03:06:14;3.60;95.70
48162;DHT22;33950;48.154;16.316;2022-11-20T03:09:01;3.70;95.90
48162;DHT22;33950;48.154;16.316;2022-11-20T03:11:47;3.80;95.80
48162;DHT22;33950;48.154;16.316;2022-11-20T03:14:35;3.80;96.10
48162;DHT22;33950;48.154;16.316;2022-11-20T03:17:21;3.70;96.30
48162;DHT22;33950;48.154;16.316;2022-11-20T03:20:08;3.70;96.10
48162;DHT22;33950;48.154;16.316;2022-11-20T03:22:55;3.60;96.20
48162;DHT22;33950;48.154;16.316;2022-11-20T03:25:41;3.60;96.20
48162;DHT22;33950;48.154;16.316;2022-11-20T03:28:27;3.60;96.50
48162;DHT22;33950;48.154;16.316;2022-11-20T03:31:15;3.70;96.40
48162;DHT22;33950;48.154;16.316;2022-11-20T03:34:03;3.70;96.50
48162;DHT22;33950;48.154;16.316;2022-11-20T03:36:49;3.70;96.30
48162;DHT22;33950;48.154;16.316;2022-11-20T03:39:35;3.70;96.30
48162;DHT22;33950;48.154;16.316;2022-11-20T03:42:22;3.70;96.30
48162;DHT22;33950;48.154;16.316;2022-11-20T03:45:26;3.60;96.30
48162;DHT22;33950;48.154;16.316;2022-11-20T03:48:13;3.60;96.30
48162;DHT22;33950;48.154;16.316;2022-11-20T03:51:07;3.50;96.40
48162;DHT22;33950;48.154;16.316;2022-11-20T03:53:55;3.50;96.50
48162;DHT22;33950;48.154;16.316;2022-11-20T03:56:41;3.50;96.70
48162;DHT22;33950;48.154;16.316;2022-11-20T03:59:27;3.60;96.80
48162;DHT22;33950;48.154;16.316;2022-11-20T04:02:13;3.50;96.90
48162;DHT22;33950;48.154;16.316;2022-11-20T04:05:01;3.60;97.00
48162;DHT22;33950;48.154;16.316;2022-11-20T04:07:47;3.70;97.00
48162;DHT22;33950;48.154;16.316;2022-11-20T04:10:33;3.80;97.00
48162;DHT22;33950;48.154;16.316;2022-11-20T04:13:19;3.90;96.90
48162;DHT22;33950;48.154;16.316;2022-11-20T04:16:06;3.90;96.70
48162;DHT22;33950;48.154;16.316;2022-11-20T04:18:53;3.90;96.40
48162;DHT22;33950;48.154;16.316;2022-11-20T04:21:41;4.00;96.50
48162;DHT22;33950;48.154;16.316;2022-11-20T04:24:27;4.00;96.30
48162;DHT22;33950;48.154;16.316;2022-11-20T04:27:13;3.90;96.50
48162;DHT22;33950;48.154;16.316;2022-11-20T04:29:59;4.00;96.60
48162;DHT22;33950;48.154;16.316;2022-11-20T04:32:45;4.00;96.60
48162;DHT22;33950;48.154;16.316;2022-11-20T04:35:34;4.10;96.70
48162;DHT22;33950;48.154;16.316;2022-11-20T04:38:21;4.10;96.70
48162;DHT22;33950;48.154;16.316;2022-11-20T04:41:09;4.10;96.60
48162;DHT22;33950;48.154;16.316;2022-11-20T04:43:58;4.10;96.50
48162;DHT22;33950;48.154;16.316;2022-11-20T04:46:47;4.10;96.60
48162;DHT22;33950;48.154;16.316;2022-11-20T04:49:33;4.10;96.40
48162;DHT22;33950;48.154;16.316;2022-11-20T04:52:19;4.10;96.10
48162;DHT22;33950;48.154;16.316;2022-11-20T04:55:07;4.00;96.20
48162;DHT22;33950;48.154;16.316;2022-11-20T04:57:53;4.10;96.10
48162;DHT22;33950;48.154;16.316;2022-11-20T05:00:40;4.00;96.20
48162;DHT22;33950;48.154;16.316;2022-11-20T05:03:26;3.80;96.10
48162;DHT22;33950;48.154;16.316;2022-11-20T05:06:13;3.90;96.40
48162;DHT22;33950;48.154;16.316;2022-11-20T05:08:59;3.90;96.50
48162;DHT22;33950;48.154;16.316;2022-11-20T05:11:48;4.00;96.30
48162;DHT22;33950;48.154;16.316;2022-11-20T05:14:34;4.00;96.40
48162;DHT22;33950;48.154;16.316;2022-11-20T05:17:20;4.00;96.60
48162;DHT22;33950;48.154;16.316;2022-11-20T05:20:07;4.00;96.30
48162;DHT22;33950;48.154;16.316;2022-11-20T05:22:56;4.00;96.30
48162;DHT22;33950;48.154;16.316;2022-11-20T05:25:42;4.10;96.20
48162;DHT22;33950;48.154;16.316;2022-11-20T05:28:31;4.10;95.90
48162;DHT22;33950;48.154;16.316;2022-11-20T05:31:19;4.00;96.00
48162;DHT22;33950;48.154;16.316;2022-11-20T05:34:06;4.00;96.10
48162;DHT22;33950;48.154;16.316;2022-11-20T05:36:52;3.90;95.80
48162;DHT22;33950;48.154;16.316;2022-11-20T05:39:38;3.90;95.80
48162;DHT22;33950;48.154;16.316;2022-11-20T05:42:24;3.90;96.10
48162;DHT22;33950;48.154;16.316;2022-11-20T05:45:18;3.90;96.20
48162;DHT22;33950;48.154;16.316;2022-11-20T05:48:04;4.00;96.10
48162;DHT22;33950;48.154;16.316;2022-11-20T05:50:50;4.00;95.70
48162;DHT22;33950;48.154;16.316;2022-11-20T05:53:36;3.90;95.80
48162;DHT22;33950;48.154;16.316;2022-11-20T05:56:22;3.90;96.00
48162;DHT22;33950;48.154;16.316;2022-11-20T05:59:09;4.00;95.80
48162;DHT22;33950;48.154;16.316;2022-11-20T06:01:56;4.10;95.80
48162;DHT22;33950;48.154;16.316;2022-11-20T06:04:42;4.10;95.80
48162;DHT22;33950;48.154;16.316;2022-11-20T06:07:28;4.10;95.70
48162;DHT22;33950;48.154;16.316;2022-11-20T06:10:14;4.00;95.70
48162;DHT22;33950;48.154;16.316;2022-11-20T06:13:00;4.00;95.90
48162;DHT22;33950;48.154;16.316;2022-11-20T06:15:48;4.00;96.00
48162;DHT22;33950;48.154;16.316;2022-11-20T06:18:36;4.00;96.10
48162;DHT22;33950;48.154;16.316;2022-11-20T06:21:23;4.10;96.20
48162;DHT22;33950;48.154;16.316;2022-11-20T06:24:10;4.00;96.30
48162;DHT22;33950;48.154;16.316;2022-11-20T06:26:56;4.00;96.20
48162;DHT22;33950;48.154;16.316;2022-11-20T06:29:43;3.90;96.30
48162;DHT22;33950;48.154;16.316;2022-11-20T06:32:29;3.80;96.50
48162;DHT22;33950;48.154;16.316;2022-11-20T06:35:16;3.80;96.70
48162;DHT22;33950;48.154;16.316;2022-11-20T06:38:02;3.80;96.90
48162;DHT22;33950;48.154;16.316;2022-11-20T06:40:49;3.80;97.00
48162;DHT22;33950;48.154;16.316;2022-11-20T06:43:35;3.80;96.90
48162;DHT22;33950;48.154;16.316;2022-11-20T06:46:21;3.80;97.20
48162;DHT22;33950;48.154;16.316;2022-11-20T06:49:07;3.80;97.10
48162;DHT22;33950;48.154;16.316;2022-11-20T06:51:54;3.90;97.10
48162;DHT22;33950;48.154;16.316;2022-11-20T06:54:40;3.90;97.20
48162;DHT22;33950;48.154;16.316;2022-11-20T06:57:26;3.90;97.30
48162;DHT22;33950;48.154;16.316;2022-11-20T07:00:14;4.00;97.40
48162;DHT22;33950;48.154;16.316;2022-11-20T07:03:02;3.90;97.60
48162;DHT22;33950;48.154;16.316;2022-11-20T07:05:48;3.80;97.40
48162;DHT22;33950;48.154;16.316;2022-11-20T07:08:36;3.80;97.60
48162;DHT22;33950;48.154;16.316;2022-11-20T07:11:22;3.60;97.60
48162;DHT22;33950;48.154;16.316;2022-11-20T07:14:09;3.70;97.90
48162;DHT22;33950;48.154;16.316;2022-11-20T07:16:55;3.80;98.00
48162;DHT22;33950;48.154;16.316;2022-11-20T07:19:41;3.80;98.10
48162;DHT22;33950;48.154;16.316;2022-11-20T07:22:28;3.80;98.00
48162;DHT22;33950;48.154;16.316;2022-11-20T07:25:16;3.90;98.10
48162;DHT22;33950;48.154;16.316;2022-11-20T07:28:02;3.80;98.00
48162;DHT22;33950;48.154;16.316;2022-11-20T07:30:51;3.80;97.80
48162;DHT22;33950;48.154;16.316;2022-11-20T07:33:37;3.80;97.80
48162;DHT22;33950;48.154;16.316;2022-11-20T07:36:23;3.80;97.80
48162;DHT22;33950;48.154;16.316;2022-11-20T07:39:09;3.80;97.90
48162;DHT22;33950;48.154;16.316;2022-11-20T07:41:57;3.70;97.80
48162;DHT22;33950;48.154;16.316;2022-11-20T07:44:43;3.80;97.90
48162;DHT22;33950;48.154;16.316;2022-11-20T07:47:35;3.90;97.80
48162;DHT22;33950;48.154;16.316;2022-11-20T07:50:21;4.00;97.80
48162;DHT22;33950;48.154;16.316;2022-11-20T07:53:07;3.80;97.70
48162;DHT22;33950;48.154;16.316;2022-11-20T07:55:53;3.80;97.70
48162;DHT22;33950;48.154;16.316;2022-11-20T07:58:41;3.90;97.50
48162;DHT22;33950;48.154;16.316;2022-11-20T08:01:27;3.90;97.30
48162;DHT22;33950;48.154;16.316;2022-11-20T08:04:13;3.90;97.40
48162;DHT22;33950;48.154;16.316;2022-11-20T08:07:01;3.90;97.20
48162;DHT22;33950;48.154;16.316;2022-11-20T08:09:48;3.90;97.30
48162;DHT22;33950;48.154;16.316;2022-11-20T08:12:34;3.80;97.20
48162;DHT22;33950;48.154;16.316;2022-11-20T08:15:40;3.80;97.30
48162;DHT22;33950;48.154;16.316;2022-11-20T08:18:26;3.90;97.40
48162;DHT22;33950;48.154;16.316;2022-11-20T08:21:12;3.90;97.40
48162;DHT22;33950;48.154;16.316;2022-11-20T08:23:58;3.90;97.30
48162;DHT22;33950;48.154;16.316;2022-11-20T08:26:45;3.80;97.30
48162;DHT22;33950;48.154;16.316;2022-11-20T08:29:31;3.90;97.50
48162;DHT22;33950;48.154;16.316;2022-11-20T08:32:18;4.00;97.50
48162;DHT22;33950;48.154;16.316;2022-11-20T08:35:04;4.00;97.40
48162;DHT22;33950;48.154;16.316;2022-11-20T08:37:51;3.90;97.40
48162;DHT22;33950;48.154;16.316;2022-11-20T08:40:37;3.90;97.40
48162;DHT22;33950;48.154;16.316;2022-11-20T08:43:23;3.90;97.40
48162;DHT22;33950;48.154;16.316;2022-11-20T08:46:09;3.60;97.30
48162;DHT22;33950;48.154;16.316;2022-11-20T08:48:56;3.60;97.60
48162;DHT22;33950;48.154;16.316;2022-11-20T08:51:42;3.50;97.80
48162;DHT22;33950;48.154;16.316;2022-11-20T08:54:28;3.50;97.80
48162;DHT22;33950;48.154;16.316;2022-11-20T08:57:14;3.40;97.80
48162;DHT22;33950;48.154;16.316;2022-11-20T09:00:01;3.50;98.00
48162;DHT22;33950;48.154;16.316;2022-11-20T09:02:47;3.40;98.00
48162;DHT22;33950;48.154;16.316;2022-11-20T09:05:35;3.50;98.00
48162;DHT22;33950;48.154;16.316;2022-11-20T09:08:21;3.80;97.80
48162;DHT22;33950;48.154;16.316;2022-11-20T09:11:07;3.70;97.90
48162;DHT22;33950;48.154;16.316;2022-11-20T09:13:53;3.80;97.70
48162;DHT22;33950;48.154;16.316;2022-11-20T09:16:39;3.80;97.80
48162;DHT22;33950;48.154;16.316;2022-11-20T09:19:26;3.80;98.10
48162;DHT22;33950;48.154;16.316;2022-11-20T09:22:13;3.90;98.00
48162;DHT22;33950;48.154;16.316;2022-11-20T09:24:59;3.90;97.60
48162;DHT22;33950;48.154;16.316;2022-11-20T09:27:46;3.80;97.70
48162;DHT22;33950;48.154;16.316;2022-11-20T09:30:32;3.70;97.60
48162;DHT22;33950;48.154;16.316;2022-11-20T09:33:18;3.70;97.70
48162;DHT22;33950;48.154;16.316;2022-11-20T09:36:04;3.70;97.70
48162;DHT22;33950;48.154;16.316;2022-11-20T09:38:52;3.80;97.90
48162;DHT22;33950;48.154;16.316;2022-11-20T09:41:55;3.80;97.50
48162;DHT22;33950;48.154;16.316;2022-11-20T09:45:11;4.20;98.00
48162;DHT22;33950;48.154;16.316;2022-11-20T09:51:39;3.90;98.00
48162;DHT22;33950;48.154;16.316;2022-11-20T09:54:33;3.90;97.80
48162;DHT22;33950;48.154;16.316;2022-11-20T09:57:21;3.90;97.80
48162;DHT22;33950;48.154;16.316;2022-11-20T10:00:11;3.90;97.90
48162;DHT22;33950;48.154;16.316;2022-11-20T10:03:01;3.90;98.00
48162;DHT22;33950;48.154;16.316;2022-11-20T10:05:52;3.90;98.10
48162;DHT22;33950;48.154;16.316;2022-11-20T10:08:41;3.90;98.00
48162;DHT22;33950;48.154;16.316;2022-11-20T10:11:37;3.90;98.20
48162;DHT22;33950;48.154;16.316;2022-11-20T10:14:35;3.90;98.40
48162;DHT22;33950;48.154;16.316;2022-11-20T10:17:45;3.90;98.50
48162;DHT22;33950;48.154;16.316;2022-11-20T10:20:43;4.10;98.30
48162;DHT22;33950;48.154;16.316;2022-11-20T10:23:47;4.10;98.20
48162;DHT22;33950;48.154;16.316;2022-11-20T10:26:44;4.10;98.10
48162;DHT22;33950;48.154;16.316;2022-11-20T10:29:36;4.10;98.10
48162;DHT22;33950;48.154;16.316;2022-11-20T10:32:29;4.10;98.00
48162;DHT22;33950;48.154;16.316;2022-11-20T10:35:21;4.10;98.10
48162;DHT22;33950;48.154;16.316;2022-11-20T10:38:13;4.10;98.10
48162;DHT22;33950;48.154;16.316;2022-11-20T10:41:02;4.30;98.10
48162;DHT22;33950;48.154;16.316;2022-11-20T10:44:14;4.70;99.90
48162;DHT22;33950;48.154;16.316;2022-11-20T10:47:00;5.00;99.40
48162;DHT22;33950;48.154;16.316;2022-11-20T10:49:49;5.20;98.60
48162;DHT22;33950;48.154;16.316;2022-11-20T10:52:46;5.10;97.90
48162;DHT22;33950;48.154;16.316;2022-11-20T10:55:40;4.90;97.90
48162;DHT22;33950;48.154;16.316;2022-11-20T10:58:37;4.80;97.70
48162;DHT22;33950;48.154;16.316;2022-11-20T11:01:26;4.90;98.20
48162;DHT22;33950;48.154;16.316;2022-11-20T11:04:23;5.00;98.10
48162;DHT22;33950;48.154;16.316;2022-11-20T11:07:15;5.10;97.80
48162;DHT22;33950;48.154;16.316;2022-11-20T11:10:14;5.20;97.60
48162;DHT22;33950;48.154;16.316;2022-11-20T11:13:00;5.30;97.60
48162;DHT22;33950;48.154;16.316;2022-11-20T11:15:47;5.40;97.50
48162;DHT22;33950;48.154;16.316;2022-11-20T11:18:34;5.40;97.60
48162;DHT22;33950;48.154;16.316;2022-11-20T11:21:24;5.50;97.40
48162;DHT22;33950;48.154;16.316;2022-11-20T11:24:23;5.50;97.30
48162;DHT22;33950;48.154;16.316;2022-11-20T11:27:13;5.50;97.70
48162;DHT22;33950;48.154;16.316;2022-11-20T11:30:12;5.40;97.20
48162;DHT22;33950;48.154;16.316;2022-11-20T11:33:05;5.50;97.30
48162;DHT22;33950;48.154;16.316;2022-11-20T11:35:55;5.50;97.40
48162;DHT22;33950;48.154;16.316;2022-11-20T11:38:44;5.60;97.30
48162;DHT22;33950;48.154;16.316;2022-11-20T11:41:33;5.70;97.10
48162;DHT22;33950;48.154;16.316;2022-11-20T11:44:27;5.70;97.00
48162;DHT22;33950;48.154;16.316;2022-11-20T11:47:36;5.60;97.10
48162;DHT22;33950;48.154;16.316;2022-11-20T11:50:23;5.80;97.30
48162;DHT22;33950;48.154;16.316;2022-11-20T11:53:13;6.00;97.00
48162;DHT22;33950;48.154;16.316;2022-11-20T11:56:05;6.10;96.90
48162;DHT22;33950;48.154;16.316;2022-11-20T11:58:58;6.60;96.80
48162;DHT22;33950;48.154;16.316;2022-11-20T12:01:52;7.30;96.50
48162;DHT22;33950;48.154;16.316;2022-11-20T12:04:43;7.60;95.80
48162;DHT22;33950;48.154;16.316;2022-11-20T12:07:38;7.80;94.90
48162;DHT22;33950;48.154;16.316;2022-11-20T12:10:40;7.80;95.20
48162;DHT22;33950;48.154;16.316;2022-11-20T12:13:36;7.90;94.80
48162;DHT22;33950;48.154;16.316;2022-11-20T12:16:23;8.10;94.50
48162;DHT22;33950;48.154;16.316;2022-11-20T12:19:11;8.30;94.30
48162;DHT22;33950;48.154;16.316;2022-11-20T12:22:04;8.30;94.50
48162;DHT22;33950;48.154;16.316;2022-11-20T12:24:56;8.50;93.70
48162;DHT22;33950;48.154;16.316;2022-11-20T12:28:05;8.80;94.00
48162;DHT22;33950;48.154;16.316;2022-11-20T12:31:05;9.10;94.00
48162;DHT22;33950;48.154;16.316;2022-11-20T12:34:03;9.10;93.50
48162;DHT22;33950;48.154;16.316;2022-11-20T12:36:59;9.10;93.20
48162;DHT22;33950;48.154;16.316;2022-11-20T12:39:48;9.30;93.60
48162;DHT22;33950;48.154;16.316;2022-11-20T12:42:51;9.80;93.30
48162;DHT22;33950;48.154;16.316;2022-11-20T12:46:22;9.80;92.90
48162;DHT22;33950;48.154;16.316;2022-11-20T12:49:24;10.00;92.50
48162;DHT22;33950;48.154;16.316;2022-11-20T12:52:28;9.70;92.40
48162;DHT22;33950;48.154;16.316;2022-11-20T12:55:36;9.50;92.40
48162;DHT22;33950;48.154;16.316;2022-11-20T12:58:31;9.50;92.90
48162;DHT22;33950;48.154;16.316;2022-11-20T13:01:25;9.40;92.80
48162;DHT22;33950;48.154;16.316;2022-11-20T13:04:57;9.60;93.00
48162;DHT22;33950;48.154;16.316;2022-11-20T13:07:47;9.80;92.60
48162;DHT22;33950;48.154;16.316;2022-11-20T13:10:38;9.70;92.50
48162;DHT22;33950;48.154;16.316;2022-11-20T13:13:35;9.30;92.50
48162;DHT22;33950;48.154;16.316;2022-11-20T13:16:28;9.00;92.70
48162;DHT22;33950;48.154;16.316;2022-11-20T13:19:18;8.80;93.10
48162;DHT22;33950;48.154;16.316;2022-11-20T13:22:04;8.50;93.40
48162;DHT22;33950;48.154;16.316;2022-11-20T13:24:51;8.40;93.80
48162;DHT22;33950;48.154;16.316;2022-11-20T13:27:47;8.10;94.30
48162;DHT22;33950;48.154;16.316;2022-11-20T13:30:49;8.00;94.50
48162;DHT22;33950;48.154;16.316;2022-11-20T13:33:39;8.00;94.70
48162;DHT22;33950;48.154;16.316;2022-11-20T13:36:28;7.90;94.80
48162;DHT22;33950;48.154;16.316;2022-11-20T13:39:24;7.80;95.00
48162;DHT22;33950;48.154;16.316;2022-11-20T13:42:23;7.80;95.10
48162;DHT22;33950;48.154;16.316;2022-11-20T13:45:20;7.80;95.20
48162;DHT22;33950;48.154;16.316;2022-11-20T13:48:19;7.80;95.20
48162;DHT22;33950;48.154;16.316;2022-11-20T13:51:14;7.80;95.50
48162;DHT22;33950;48.154;16.316;2022-11-20T13:57:50;7.80;95.60
48162;DHT22;33950;48.154;16.316;2022-11-20T14:00:44;7.70;95.60
48162;DHT22;33950;48.154;16.316;2022-11-20T14:03:34;7.60;95.70
48162;DHT22;33950;48.154;16.316;2022-11-20T14:06:26;7.60;95.80
48162;DHT22;33950;48.154;16.316;2022-11-20T14:09:24;7.60;95.80
48162;DHT22;33950;48.154;16.316;2022-11-20T14:12:16;7.60;95.70
48162;DHT22;33950;48.154;16.316;2022-11-20T14:15:04;7.60;95.80
48162;DHT22;33950;48.154;16.316;2022-11-20T14:17:50;7.50;95.80
48162;DHT22;33950;48.154;16.316;2022-11-20T14:20:38;7.50;96.00
48162;DHT22;33950;48.154;16.316;2022-11-20T14:23:26;7.50;96.20
48162;DHT22;33950;48.154;16.316;2022-11-20T14:26:14;7.60;95.90
48162;DHT22;33950;48.154;16.316;2022-11-20T14:29:00;7.70;96.00
48162;DHT22;33950;48.154;16.316;2022-11-20T14:31:50;7.70;95.90
48162;DHT22;33950;48.154;16.316;2022-11-20T14:34:39;7.80;96.00
48162;DHT22;33950;48.154;16.316;2022-11-20T14:37:29;7.80;95.90
48162;DHT22;33950;48.154;16.316;2022-11-20T14:40:24;7.70;95.80
48162;DHT22;33950;48.154;16.316;2022-11-20T14:43:19;7.70;96.00
48162;DHT22;33950;48.154;16.316;2022-11-20T14:46:08;7.70;96.00
48162;DHT22;33950;48.154;16.316;2022-11-20T14:48:56;7.70;96.00
48162;DHT22;33950;48.154;16.316;2022-11-20T14:51:42;7.60;96.00
48162;DHT22;33950;48.154;16.316;2022-11-20T14:54:30;7.60;96.10
48162;DHT22;33950;48.154;16.316;2022-11-20T14:57:24;7.60;96.40
48162;DHT22;33950;48.154;16.316;2022-11-20T15:00:21;7.50;96.50
48162;DHT22;33950;48.154;16.316;2022-11-20T15:03:15;7.50;96.40
48162;DHT22;33950;48.154;16.316;2022-11-20T15:06:01;7.40;96.40
48162;DHT22;33950;48.154;16.316;2022-11-20T15:08:51;7.40;96.50
48162;DHT22;33950;48.154;16.316;2022-11-20T15:11:38;7.40;96.70
48162;DHT22;33950;48.154;16.316;2022-11-20T15:14:25;7.40;96.70
48162;DHT22;33950;48.154;16.316;2022-11-20T15:17:12;7.40;96.60
48162;DHT22;33950;48.154;16.316;2022-11-20T15:19:59;7.40;96.60
48162;DHT22;33950;48.154;16.316;2022-11-20T15:22:45;7.40;96.60
48162;DHT22;33950;48.154;16.316;2022-11-20T15:25:31;7.40;96.60
48162;DHT22;33950;48.154;16.316;2022-11-20T15:28:21;7.40;96.70
48162;DHT22;33950;48.154;16.316;2022-11-20T15:31:11;7.30;96.70
48162;DHT22;33950;48.154;16.316;2022-11-20T15:33:57;7.30;96.70
48162;DHT22;33950;48.154;16.316;2022-11-20T15:36:44;7.20;96.80
48162;DHT22;33950;48.154;16.316;2022-11-20T15:39:31;7.20;96.80
48162;DHT22;33950;48.154;16.316;2022-11-20T15:42:17;7.20;96.90
48162;DHT22;33950;48.154;16.316;2022-11-20T15:45:05;7.20;97.00
48162;DHT22;33950;48.154;16.316;2022-11-20T15:47:51;7.10;97.00
48162;DHT22;33950;48.154;16.316;2022-11-20T15:50:39;7.10;97.00
48162;DHT22;33950;48.154;16.316;2022-11-20T15:53:27;7.10;97.00
48162;DHT22;33950;48.154;16.316;2022-11-20T15:56:14;7.00;97.10
48162;DHT22;33950;48.154;16.316;2022-11-20T15:59:00;6.90;97.10
48162;DHT22;33950;48.154;16.316;2022-11-20T16:01:47;6.70;97.30
48162;DHT22;33950;48.154;16.316;2022-11-20T16:04:33;6.60;97.50
48162;DHT22;33950;48.154;16.316;2022-11-20T16:07:19;6.60;97.60
48162;DHT22;33950;48.154;16.316;2022-11-20T16:10:06;6.60;97.70
48162;DHT22;33950;48.154;16.316;2022-11-20T16:12:52;6.60;97.70
48162;DHT22;33950;48.154;16.316;2022-11-20T16:16:00;6.60;97.70
48162;DHT22;33950;48.154;16.316;2022-11-20T16:18:48;6.50;97.80
48162;DHT22;33950;48.154;16.316;2022-11-20T16:21:34;6.50;97.80
48162;DHT22;33950;48.154;16.316;2022-11-20T16:24:23;6.50;97.80
48162;DHT22;33950;48.154;16.316;2022-11-20T16:27:09;6.60;97.80
48162;DHT22;33950;48.154;16.316;2022-11-20T16:29:56;6.60;97.90
48162;DHT22;33950;48.154;16.316;2022-11-20T16:32:42;6.60;97.80
48162;DHT22;33950;48.154;16.316;2022-11-20T16:35:30;6.60;97.70
48162;DHT22;33950;48.154;16.316;2022-11-20T16:38:16;6.60;97.60
48162;DHT22;33950;48.154;16.316;2022-11-20T16:41:03;6.60;97.60
48162;DHT22;33950;48.154;16.316;2022-11-20T16:43:51;6.60;97.60
48162;DHT22;33950;48.154;16.316;2022-11-20T16:46:37;6.60;97.60
48162;DHT22;33950;48.154;16.316;2022-11-20T16:49:25;6.50;97.60
48162;DHT22;33950;48.154;16.316;2022-11-20T16:52:12;6.60;97.70
48162;DHT22;33950;48.154;16.316;2022-11-20T16:54:59;6.60;97.70
48162;DHT22;33950;48.154;16.316;2022-11-20T16:57:45;6.50;97.60
48162;DHT22;33950;48.154;16.316;2022-11-20T17:00:31;6.50;97.70
48162;DHT22;33950;48.154;16.316;2022-11-20T17:03:18;6.50;97.70
48162;DHT22;33950;48.154;16.316;2022-11-20T17:06:11;6.50;97.60
48162;DHT22;33950;48.154;16.316;2022-11-20T17:08:59;6.50;97.60
48162;DHT22;33950;48.154;16.316;2022-11-20T17:11:47;6.40;97.80
48162;DHT22;33950;48.154;16.316;2022-11-20T17:14:33;6.40;97.70
48162;DHT22;33950;48.154;16.316;2022-11-20T17:17:19;6.30;97.80
48162;DHT22;33950;48.154;16.316;2022-11-20T17:20:06;6.20;98.20
48162;DHT22;33950;48.154;16.316;2022-11-20T17:22:53;6.10;98.00
48162;DHT22;33950;48.154;16.316;2022-11-20T17:25:40;6.10;98.10
48162;DHT22;33950;48.154;16.316;2022-11-20T17:28:26;6.00;98.10
48162;DHT22;33950;48.154;16.316;2022-11-20T17:31:14;5.90;98.40
48162;DHT22;33950;48.154;16.316;2022-11-20T17:34:01;5.90;98.40
48162;DHT22;33950;48.154;16.316;2022-11-20T17:36:47;5.80;98.60
48162;DHT22;33950;48.154;16.316;2022-11-20T17:39:33;5.90;98.70
48162;DHT22;33950;48.154;16.316;2022-11-20T17:42:20;5.90;98.60
48162;DHT22;33950;48.154;16.316;2022-11-20T17:45:14;5.90;98.30
48162;DHT22;33950;48.154;16.316;2022-11-20T17:48:00;5.90;98.40
48162;DHT22;33950;48.154;16.316;2022-11-20T17:50:46;5.90;98.40
48162;DHT22;33950;48.154;16.316;2022-11-20T17:53:33;6.00;98.30
48162;DHT22;33950;48.154;16.316;2022-11-20T17:56:19;6.00;98.30